AirNav   Everest Fuels
 
 975 users online  

FL05 GEICO Helistop Heliport
Orlando, Florida, USA

GOING TO ORLANDO?


FAA INFORMATION EFFECTIVE 21 MAY 2020

Location

FAA Identifier: FL05
Lat/Long: 28-32-14.8600N 081-23-04.1400W
28-32.247667N 081-23.069000W
28.5374611,-81.3844833
(estimated)
Elevation: 197 ft. / 60 m (estimated)
Time zone: UTC -4 (UTC -5 during Standard Time)
Zip code: 32801

Heliport Operations

Heliport use: Private use. Permission required prior to landing
Activation date: 03/2019
Control tower: no
ARTCC: JACKSONVILLE CENTER
FSS: SAINT PETERSBURG FLIGHT SERVICE STATION
Attendance: 
Wind indicator: lighted
Segmented circle: no
Lights: ON DEMAND SWITCH ACT - CTC AMGR FOR INFO.
Landing fee: yes

Heliport Communications

WX ASOS at ORL (2.8 nm E): PHONE 407-658-6753
WX ASOS at MCO (8 nm SE): PHONE 407-855-5235
WX AWOS-3PT at ISM (15 nm S): 128.775 (407-847-0533)
WX ASOS at SFB (16 nm NE): PHONE 407-321-9384

Nearby radio navigation aids

VOR radial/distance  VOR name  Freq  Var
ORLr263/2.6ORLANDO VORTAC112.2000E

Heliport Services

Runway Information

Helipad H1

Dimensions: 38 x 38 ft. / 12 x 12 m
Surface: concrete, in excellent condition
Runway edge lights: PERI
Latitude: 28-32.247667N
Longitude: 081-23.069000W
Elevation: 197.0 ft.
Traffic pattern: leftleft
Markings: numbers only

Heliport Ownership and Management from official FAA records

Ownership: Privately-owned
Owner: CITY OF ORLANDO
400 S ORANGE AVE
ORLANDO, FL 32801
Phone 407-246-2267
Manager: TRANSPORTATION DIRECTOR
400 S ORANGE AVE
ORLANDO, FL 32801
Phone 407-246-2267

Instrument Procedures

There are no published instrument procedures at FL05.

Some nearby airports with instrument procedures:

KORL - Executive Airport (3 nm E)
KMCO - Orlando International Airport (8 nm SE)
X04 - Orlando Apopka Airport (15 nm NW)
KISM - Kissimmee Gateway Airport (15 nm S)
KSFB - Orlando Sanford International Airport (16 nm NE)
 
Loc | Ops | Rwys | IFR | FBO | Links
Com | Nav | Svcs | Stats | Notes
Aerial photo
No photo
 
Airport distance calculator
Flying to GEICO Helistop Heliport? Find the distance to fly.

From to FL05

Sunrise and sunset
Times for 06-Jun-2020
 Local
(UTC-4)
 Zulu
(UTC)
Morning civil twilight06:0210:02
Sunrise06:2810:28
Sunset20:2000:20
Evening civil twilight20:4700:47

Current date and time
Zulu (UTC)  06-Jun-2020 14:30:55
Local (UTC-4)  06-Jun-2020 10:30:55
 
METAR
KORL 
3nm E 
061401Z 11004KT 10SM FEW009 FEW033 SCT110 26/24 A3004 RMK AO2 T02610239
KMCO 
8nm S 
061353Z 10006KT 10SM -RA SCT027 SCT080 OVC250 26/24 A3003 RMK AO2 SLP167 P0000 T02610244 $
KISM 
15nm S 
061417Z 11006KT 7SM -RA OVC009 26/25 A3005 RMK AO2 CIG 007V012 PNO $
KSFB 
16nm NE 
061353Z 09007KT 10SM FEW023 SCT110 26/24 A3003 RMK AO2 RAE07 SLP168 P0000 T02610239
TAF
KMCO 
8nm S 
061140Z 0612/0718 14007KT 6SM -RA FEW040 BKN100 OVC250 TEMPO 0614/0618 4SM SHRA SCT015 BKN030 FM061800 06008KT 4SM RA VCTS SCT030CB BKN050 OVC100 FM070100 07010KT 6SM SHRA SCT015 BKN025 FM070600 10009KT P6SM VCSH SCT010 BKN020 FM071100 13005KT P6SM VCSH BKN030
KISM 
15nm S 
061140Z 0612/0712 VRB04KT 6SM -RA FEW040 BKN100 OVC250 TEMPO 0614/0618 4SM SHRA SCT015 BKN030 FM061800 12007KT 4SM RA VCTS SCT030CB BKN050 OVC100 FM070100 07010KT 6SM SHRA SCT015 BKN025 FM070600 10009KT P6SM VCSH SCT010 BKN020
KSFB 
16nm NE 
061140Z 0612/0712 18006KT 6SM -RA FEW040 BKN100 OVC250 TEMPO 0614/0618 4SM SHRA SCT015 BKN030 FM061800 06007KT 4SM RA VCTS SCT030CB BKN050 OVC100 FM070100 07008KT 6SM SHRA SCT015 BKN025 FM070600 09006KT P6SM VCSH SCT010 BKN020
NOTAMs
Click for the latest NOTAMs
NOTAMs are issued by the DoD/FAA and will open in a separate window not controlled by AirNav.

 

 
 

Would you like to see your business listed on this page?

 If your business provides an interesting product or service to pilots, flight crews, aircraft, or users of the GEICO Helistop Heliport, you should consider listing it here.  To start the listing process, click on the button below
 
Add a business
 

Other Pages about GEICO Helistop Heliport

Update a link
 
Copyright © AirNav, LLC. All rights reserved. Privacy Policy  Contact